Time;durP1;ratioP1;P1;durP2;ratioP2;P2;SDS_P1;SDS_P2;PMS_P1;PMS_P2;Temp;Humidity;BMP_temperature;BMP_pressure;BME280_temperature;BME280_humidity;BME280_pressure;Samples;Min_cycle;Max_cycle;Signal;HPM_P1;HPM_P2
2022/03/16 00:00:14;;;;;;;16.88;8.15;;;19.10;60.70;;;;;;5063799;28;20025;-69
2022/03/16 00:02:40;;;;;;;14.35;7.68;;;23.30;62.80;;;;;;5063504;28;20127;-69
2022/03/16 00:05:06;;;;;;;16.15;7.97;;;17.60;59.90;;;;;;5063513;28;20497;-69
2022/03/16 00:07:32;;;;;;;15.70;7.72;;;16.70;59.40;;;;;;5063604;28;20052;-69
2022/03/16 00:09:58;;;;;;;13.80;7.70;;;20.60;61.70;;;;;;5063286;28;20029;-69
2022/03/16 00:12:23;;;;;;;13.20;7.38;;;19.70;61.10;;;;;;5078807;28;20479;-69
2022/03/16 00:14:49;;;;;;;15.82;7.97;;;19.70;61.20;;;;;;5078267;28;20044;-69
2022/03/16 00:17:16;;;;;;;15.25;7.22;;;23.70;63.70;;;;;;5078454;28;20033;-69
2022/03/16 00:19:43;;;;;;;18.48;7.72;;;19.00;60.80;;;;;;5080081;28;20033;-69
2022/03/16 00:22:10;;;;;;;14.00;7.28;;;19.00;60.80;;;;;;5061107;28;20024;-69
2022/03/16 00:24:36;;;;;;;17.58;8.00;;;18.40;60.30;;;;;;5060355;28;20484;-69
2022/03/16 00:27:03;;;;;;;15.07;7.28;;;19.80;61.20;;;;;;5059055;28;20028;-69
2022/03/16 00:29:28;;;;;;;14.05;7.38;;;23.70;63.30;;;;;;5062211;28;20052;-69
2022/03/16 00:31:54;;;;;;;13.68;6.97;;;20.70;61.80;;;;;;5079056;28;20027;-69
2022/03/16 00:34:20;;;;;;;11.60;6.45;;;20.80;62.00;;;;;;5083295;28;20480;-69
2022/03/16 00:36:46;;;;;;;14.85;7.43;;;17.70;60.10;;;;;;5083367;28;20502;-69
2022/03/16 00:39:12;;;;;;;13.00;7.13;;;21.60;62.40;;;;;;5082802;28;20162;-69
2022/03/16 00:41:37;;;;;;;12.25;6.82;;;23.60;63.70;;;;;;5082681;28;20036;-69
2022/03/16 00:44:04;;;;;;;14.10;6.68;;;22.80;63.10;;;;;;5082961;28;20028;-69
2022/03/16 00:46:30;;;;;;;11.70;6.15;;;19.50;60.80;;;;;;5083828;28;20107;-69
2022/03/16 00:48:56;;;;;;;11.75;6.45;;;18.70;60.80;;;;;;5083189;28;20021;-69
2022/03/16 00:51:22;;;;;;;13.80;7.15;;;19.30;61.40;;;;;;5082328;28;20036;-69
2022/03/16 00:53:48;;;;;;;15.55;6.95;;;21.10;62.20;;;;;;5083133;28;20468;-69
2022/03/16 00:56:14;;;;;;;13.60;6.32;;;21.20;62.30;;;;;;5082975;28;20052;-69
2022/03/16 00:58:40;;;;;;;13.00;6.15;;;21.10;62.10;;;;;;5082529;28;20020;-69
2022/03/16 01:01:06;;;;;;;12.07;7.05;;;20.00;61.50;;;;;;5065155;28;20024;-69
2022/03/16 01:03:33;;;;;;;11.90;6.35;;;18.10;60.10;;;;;;5082961;28;20033;-69
2022/03/16 01:05:59;;;;;;;13.15;6.22;;;18.30;60.10;;;;;;5082625;28;20088;-69
2022/03/16 01:08:25;;;;;;;13.32;6.47;;;23.30;63.50;;;;;;5074907;28;20115;-69
2022/03/16 01:10:50;;;;;;;12.43;6.63;;;22.90;63.10;;;;;;5062425;28;20021;-69
2022/03/16 01:13:16;;;;;;;11.40;5.97;;;21.10;62.00;;;;;;5062187;28;20079;-69
2022/03/16 01:15:42;;;;;;;12.60;5.97;;;24.00;63.90;;;;;;5063334;28;20021;-69
2022/03/16 01:18:08;;;;;;;12.95;6.80;;;17.40;60.10;;;;;;5063038;28;20021;-69
2022/03/16 01:20:34;;;;;;;10.27;5.47;;;23.00;63.30;;;;;;5063128;28;20032;-69
2022/03/16 01:22:59;;;;;;;14.23;6.15;;;23.50;63.80;;;;;;5063178;28;20025;-69
2022/03/16 01:25:25;;;;;;;12.80;6.05;;;20.80;62.70;;;;;;5063007;28;20025;-69
2022/03/16 01:27:51;;;;;;;13.05;5.65;;;21.10;62.30;;;;;;5063266;28;20029;-69
2022/03/16 01:30:17;;;;;;;10.52;5.90;;;16.90;59.70;;;;;;5073853;28;20024;-69
2022/03/16 01:32:43;;;;;;;10.80;5.97;;;23.50;63.50;;;;;;5083487;28;20036;-69
2022/03/16 01:35:10;;;;;;;10.15;5.65;;;21.20;62.30;;;;;;5065318;28;20029;-69
2022/03/16 01:37:36;;;;;;;10.40;5.97;;;19.00;60.70;;;;;;5082758;28;20081;-69
2022/03/16 01:40:04;;;;;;;12.38;5.22;;;20.10;61.50;;;;;;5083036;28;20028;-69
2022/03/16 01:42:30;;;;;;;12.38;5.50;;;21.00;61.40;;;;;;5083575;28;20478;-69
2022/03/16 01:44:57;;;;;;;10.48;6.20;;;23.20;63.70;;;;;;5082230;28;20025;-69
2022/03/16 01:47:24;;;;;;;9.75;5.72;;;17.70;60.30;;;;;;5084002;28;20021;-69
2022/03/16 01:49:51;;;;;;;9.20;5.53;;;20.00;61.20;;;;;;5083710;28;20016;-69
2022/03/16 01:52:20;;;;;;;12.77;5.95;;;19.60;61.40;;;;;;5065933;28;20021;-69
2022/03/16 01:54:47;;;;;;;10.40;5.80;;;21.20;61.30;;;;;;5084683;28;20074;-69
2022/03/16 01:57:13;;;;;;;12.88;6.05;;;20.10;61.60;;;;;;5084387;28;20044;-69
2022/03/16 01:59:40;;;;;;;11.02;5.90;;;19.00;60.90;;;;;;5084291;28;20092;-69
2022/03/16 02:02:06;;;;;;;10.57;5.35;;;17.50;60.00;;;;;;5083306;28;20547;-68
2022/03/16 02:04:32;;;;;;;9.25;5.05;;;17.80;59.90;;;;;;5085018;28;20123;-68
2022/03/16 02:06:59;;;;;;;13.93;5.65;;;23.00;63.30;;;;;;5066517;28;20024;-68
2022/03/16 02:09:25;;;;;;;12.48;5.88;;;18.80;60.60;;;;;;5067874;28;20025;-68
2022/03/16 02:11:51;;;;;;;12.80;6.10;;;20.10;61.60;;;;;;5063163;28;20036;-68
2022/03/16 02:14:19;;;;;;;9.88;5.38;;;18.10;60.50;;;;;;5063630;28;20052;-68
2022/03/16 02:16:46;;;;;;;8.45;5.35;;;18.80;60.80;;;;;;5063518;28;20106;-68
2022/03/16 02:19:12;;;;;;;9.43;5.03;;;17.80;59.90;;;;;;5064351;28;20032;-68
2022/03/16 02:21:42;;;;;;;10.38;5.72;;;19.50;61.20;;;;;;5064074;28;20036;-68
2022/03/16 02:24:08;;;;;;;10.57;5.55;;;19.90;61.70;;;;;;5065415;28;20043;-68
2022/03/16 02:26:35;;;;;;;8.80;5.05;;;18.60;60.70;;;;;;5064983;28;20025;-68
2022/03/16 02:29:01;;;;;;;9.68;4.88;;;17.20;59.50;;;;;;5064784;28;20017;-68
2022/03/16 02:31:27;;;;;;;10.00;5.93;;;22.80;63.20;;;;;;5083704;28;20088;-68
2022/03/16 02:33:53;;;;;;;10.43;5.03;;;19.50;60.80;;;;;;5085134;28;20025;-68
2022/03/16 02:36:19;;;;;;;10.77;5.22;;;23.10;63.20;;;;;;5085311;28;20043;-68
2022/03/16 02:38:45;;;;;;;10.40;5.72;;;23.90;63.60;;;;;;5067537;28;20020;-68
2022/03/16 02:41:11;;;;;;;10.73;5.70;;;19.40;61.00;;;;;;5085482;28;20029;-68
2022/03/16 02:43:37;;;;;;;9.80;5.30;;;19.70;61.10;;;;;;5084717;28;20048;-69
2022/03/16 02:46:04;;;;;;;8.50;4.75;;;17.70;59.70;;;;;;5084783;28;20030;-69
2022/03/16 02:48:30;;;;;;;13.85;6.00;;;23.00;62.90;;;;;;5084674;28;20460;-69
2022/03/16 02:50:56;;;;;;;9.48;5.13;;;23.80;63.20;;;;;;5085567;28;20033;-69
2022/03/16 02:53:21;;;;;;;10.20;5.53;;;24.00;63.50;;;;;;5084597;28;20031;-69
2022/03/16 02:55:47;;;;;;;10.20;5.35;;;19.00;60.60;;;;;;5084714;28;20024;-69
2022/03/16 02:58:15;;;;;;;12.57;5.55;;;17.00;59.10;;;;;;5084456;28;20021;-69
2022/03/16 03:00:41;;;;;;;11.25;5.45;;;22.10;61.80;;;;;;5084524;28;20493;-69
2022/03/16 03:03:07;;;;;;;9.25;5.18;;;21.90;61.90;;;;;;5084121;28;20020;-69
2022/03/16 03:05:33;;;;;;;9.63;5.68;;;19.80;61.00;;;;;;5083137;28;20020;-69
2022/03/16 03:07:59;;;;;;;8.45;5.72;;;23.70;63.10;;;;;;5079290;28;20085;-69
2022/03/16 03:10:26;;;;;;;12.13;5.75;;;20.70;61.30;;;;;;5063756;28;20491;-69
2022/03/16 03:12:51;;;;;;;11.23;6.00;;;23.60;62.90;;;;;;5063092;28;20021;-69
2022/03/16 03:15:18;;;;;;;11.57;5.22;;;23.20;62.80;;;;;;5063211;28;20029;-69
2022/03/16 03:17:44;;;;;;;11.73;5.40;;;22.90;62.50;;;;;;5061961;28;20555;-69
2022/03/16 03:20:11;;;;;;;11.98;5.50;;;18.80;60.20;;;;;;5063336;28;20080;-69
2022/03/16 03:22:37;;;;;;;8.15;4.72;;;19.20;60.20;;;;;;5062977;28;20519;-69
2022/03/16 03:25:05;;;;;;;11.18;4.95;;;21.40;61.70;;;;;;5062340;28;20096;-69
2022/03/16 03:27:32;;;;;;;9.68;5.07;;;17.50;58.70;;;;;;5062284;28;20413;-69
2022/03/16 03:29:58;;;;;;;10.40;5.70;;;18.30;59.70;;;;;;5062602;28;20021;-69
2022/03/16 03:32:23;;;;;;;8.13;4.88;;;23.10;62.20;;;;;;5062156;28;20029;-69
2022/03/16 03:34:51;;;;;;;12.05;5.40;;;23.50;62.80;;;;;;5062913;28;20021;-69
2022/03/16 03:37:18;;;;;;;9.50;4.88;;;23.60;62.90;;;;;;5062224;28;20025;-69
2022/03/16 03:39:44;;;;;;;10.10;5.00;;;23.80;62.60;;;;;;5062152;28;20029;-69
2022/03/16 03:42:10;;;;;;;9.13;5.18;;;17.00;58.80;;;;;;5060891;28;20033;-69
2022/03/16 03:44:37;;;;;;;10.48;5.63;;;20.90;61.10;;;;;;5060880;28;20108;-69
2022/03/16 03:47:07;;;;;;;8.68;5.18;;;19.30;60.00;;;;;;5061584;28;20031;-69
2022/03/16 03:49:35;;;;;;;10.10;5.65;;;19.80;59.00;;;;;;5062496;28;20028;-69
2022/03/16 03:52:01;;;;;;;9.40;5.15;;;23.10;61.90;;;;;;5060621;28;20112;-69
2022/03/16 03:54:27;;;;;;;9.63;5.03;;;23.40;62.60;;;;;;5060505;28;20044;-69
2022/03/16 03:56:53;;;;;;;10.57;5.15;;;21.00;61.10;;;;;;5061198;28;20051;-69
2022/03/16 03:59:19;;;;;;;11.50;5.85;;;18.10;59.60;;;;;;5060552;28;20033;-69
2022/03/16 04:01:46;;;;;;;7.40;4.93;;;19.70;60.40;;;;;;5042200;28;20029;-69
2022/03/16 04:04:11;;;;;;;8.00;5.07;;;19.60;60.00;;;;;;5060177;28;20133;-69
2022/03/16 04:06:38;;;;;;;8.23;5.10;;;18.40;59.50;;;;;;5059386;28;20041;-69
2022/03/16 04:09:04;;;;;;;10.77;5.32;;;17.60;59.10;;;;;;5073793;28;20024;-69
2022/03/16 04:11:30;;;;;;;8.45;4.78;;;20.30;60.40;;;;;;5080596;28;20020;-69
2022/03/16 04:13:56;;;;;;;12.07;5.60;;;21.30;61.20;;;;;;5080298;28;20473;-69
2022/03/16 04:16:22;;;;;;;7.45;4.88;;;16.90;58.60;;;;;;5079419;28;20060;-69
2022/03/16 04:18:47;;;;;;;10.10;5.30;;;16.90;58.60;;;;;;5080124;28;20380;-69
2022/03/16 04:21:13;;;;;;;8.15;5.55;;;20.80;60.80;;;;;;5079620;28;20025;-69
2022/03/16 04:23:39;;;;;;;8.15;5.10;;;18.70;59.70;;;;;;5069049;28;20498;-69
2022/03/16 04:26:04;;;;;;;10.00;4.95;;;19.50;60.10;;;;;;5059300;28;20446;-69
2022/03/16 04:28:30;;;;;;;9.05;4.93;;;19.80;60.10;;;;;;5058797;28;20025;-69
2022/03/16 04:30:56;;;;;;;10.60;5.90;;;21.40;61.00;;;;;;5074250;28;20024;-69
2022/03/16 04:33:22;;;;;;;10.10;5.00;;;22.40;61.80;;;;;;5078364;28;20025;-69
2022/03/16 04:35:47;;;;;;;10.68;5.50;;;19.80;60.20;;;;;;5077846;28;20463;-69
2022/03/16 04:38:13;;;;;;;9.45;5.22;;;21.40;61.30;;;;;;5077706;28;20032;-69
2022/03/16 04:40:39;;;;;;;9.88;4.97;;;16.60;58.50;;;;;;5077889;28;20021;-69
2022/03/16 04:43:05;;;;;;;10.07;5.40;;;18.20;59.50;;;;;;5076861;28;20020;-69
2022/03/16 04:45:30;;;;;;;8.70;5.30;;;17.90;59.20;;;;;;5078615;28;20025;-69
2022/03/16 04:47:56;;;;;;;11.43;5.60;;;23.60;62.60;;;;;;5081266;28;20080;-69
2022/03/16 04:50:22;;;;;;;9.57;5.35;;;19.60;60.20;;;;;;5081961;28;20490;-69
2022/03/16 04:52:48;;;;;;;11.80;4.82;;;23.50;62.40;;;;;;5081997;28;20028;-69
2022/03/16 04:55:15;;;;;;;9.65;5.15;;;19.60;59.80;;;;;;5081834;28;20456;-69
2022/03/16 04:57:41;;;;;;;7.25;4.70;;;19.80;60.10;;;;;;5081431;28;20047;-69
2022/03/16 05:00:08;;;;;;;11.13;5.30;;;23.60;62.20;;;;;;5080557;28;20080;-69
2022/03/16 05:02:33;;;;;;;10.00;4.88;;;18.60;59.30;;;;;;5080150;28;20087;-69
2022/03/16 05:04:59;;;;;;;8.98;5.40;;;17.50;58.90;;;;;;5079990;28;20029;-69
2022/03/16 05:07:25;;;;;;;8.25;4.78;;;19.70;60.20;;;;;;5079952;28;20028;-69
2022/03/16 05:09:51;;;;;;;11.73;5.47;;;22.70;61.80;;;;;;5078659;28;20017;-69
2022/03/16 05:12:16;;;;;;;7.50;4.70;;;19.70;59.90;;;;;;5076883;28;20027;-69
2022/03/16 05:14:42;;;;;;;6.07;4.57;;;20.90;61.20;;;;;;5078716;28;20040;-69
2022/03/16 05:17:08;;;;;;;7.68;5.00;;;18.00;59.20;;;;;;5062569;28;20053;-69
2022/03/16 05:19:34;;;;;;;8.73;4.90;;;19.60;60.20;;;;;;5076646;28;20522;-69
2022/03/16 05:22:00;;;;;;;9.43;5.28;;;23.40;62.30;;;;;;5061687;28;20107;-69
2022/03/16 05:24:26;;;;;;;8.55;5.20;;;18.30;59.30;;;;;;5079182;28;20074;-69
2022/03/16 05:26:52;;;;;;;6.72;4.90;;;21.30;60.90;;;;;;5083505;28;20025;-69
2022/03/16 05:29:18;;;;;;;9.20;5.45;;;19.30;59.70;;;;;;5065744;28;20046;-70
2022/03/16 05:31:44;;;;;;;7.72;5.13;;;22.50;61.60;;;;;;5081827;28;20115;-69
2022/03/16 05:34:10;;;;;;;10.10;5.07;;;18.50;59.30;;;;;;5065845;28;20047;-69
2022/03/16 05:36:36;;;;;;;8.23;5.32;;;16.80;58.30;;;;;;5061622;28;20029;-69
2022/03/16 05:39:06;;;;;;;8.23;4.82;;;19.20;59.60;;;;;;5063193;28;20033;-69
2022/03/16 05:41:32;;;;;;;8.13;4.82;;;19.70;59.40;;;;;;5062348;28;20025;-69
2022/03/16 05:43:58;;;;;;;9.88;5.47;;;20.70;60.70;;;;;;5062644;28;20376;-69
2022/03/16 05:46:23;;;;;;;9.27;5.05;;;19.60;60.00;;;;;;5061246;28;20021;-69
2022/03/16 05:48:49;;;;;;;8.18;4.82;;;18.80;59.60;;;;;;5061830;28;20555;-69
2022/03/16 05:51:15;;;;;;;6.65;4.65;;;17.60;59.10;;;;;;5078781;28;20036;-69
2022/03/16 05:53:41;;;;;;;8.48;5.03;;;18.60;59.40;;;;;;5082852;28;20493;-69
2022/03/16 05:56:07;;;;;;;7.85;4.97;;;19.00;59.90;;;;;;5082952;28;20029;-69
2022/03/16 05:58:32;;;;;;;7.97;4.68;;;19.50;60.00;;;;;;5082171;28;20055;-69
2022/03/16 06:00:58;;;;;;;7.20;4.63;;;19.30;59.90;;;;;;5080967;28;20040;-69
2022/03/16 06:03:24;;;;;;;9.07;5.07;;;19.10;60.10;;;;;;5059465;28;20017;-69
2022/03/16 06:05:50;;;;;;;6.60;4.03;;;19.40;60.20;;;;;;5078539;28;20103;-69
2022/03/16 06:08:15;;;;;;;6.78;4.10;;;18.90;59.90;;;;;;5071631;28;20485;-69
2022/03/16 06:10:41;;;;;;;7.75;4.55;;;22.90;62.10;;;;;;5058092;28;20021;-69
2022/03/16 06:13:07;;;;;;;9.20;4.53;;;18.50;59.60;;;;;;5057431;28;20027;-69
2022/03/16 06:15:42;;;;;;;8.38;4.50;;;19.20;59.90;;;;;;5058874;28;20040;-69
2022/03/16 06:18:09;;;;;;;7.70;4.35;;;19.90;58.20;;;;;;5057922;28;20017;-69
2022/03/16 06:20:36;;;;;;;7.22;4.82;;;19.90;60.40;;;;;;5057991;28;20488;-69
2022/03/16 06:23:04;;;;;;;6.93;3.92;;;17.90;58.80;;;;;;5057594;28;20032;-69
2022/03/16 06:25:31;;;;;;;6.55;4.30;;;20.40;60.60;;;;;;5075582;28;20037;-69
2022/03/16 06:27:57;;;;;;;7.57;4.28;;;19.20;60.00;;;;;;5059653;28;20578;-69
2022/03/16 06:30:23;;;;;;;8.13;4.32;;;17.70;59.30;;;;;;5078034;28;20040;-69
2022/03/16 06:32:49;;;;;;;6.28;4.07;;;21.70;61.60;;;;;;5077982;28;20063;-69
2022/03/16 06:35:15;;;;;;;7.28;3.83;;;17.80;59.30;;;;;;5077637;28;20024;-69
2022/03/16 06:37:42;;;;;;;6.85;4.13;;;22.10;61.20;;;;;;5077646;28;20024;-69
2022/03/16 06:40:08;;;;;;;9.20;4.55;;;20.00;60.10;;;;;;5078547;28;20082;-69
2022/03/16 06:42:34;;;;;;;5.45;3.92;;;23.30;62.20;;;;;;5078187;28;20020;-69
2022/03/16 06:45:00;;;;;;;9.90;4.25;;;19.80;60.50;;;;;;5078430;28;20040;-69
2022/03/16 06:47:25;;;;;;;8.90;4.00;;;22.80;62.20;;;;;;5077125;28;20024;-69
2022/03/16 06:49:51;;;;;;;8.40;4.13;;;16.90;59.00;;;;;;5078419;28;20025;-69
2022/03/16 06:52:17;;;;;;;7.93;4.20;;;20.90;61.10;;;;;;5077919;28;20021;-69
2022/03/16 06:54:42;;;;;;;7.72;3.92;;;23.40;62.50;;;;;;5078741;28;20101;-69
2022/03/16 06:57:08;;;;;;;5.25;3.72;;;17.90;59.50;;;;;;5079139;28;20108;-69
2022/03/16 06:59:34;;;;;;;6.22;4.10;;;19.60;60.30;;;;;;5078720;28;20032;-69
2022/03/16 07:01:59;;;;;;;7.10;4.18;;;18.40;59.80;;;;;;5076818;28;20032;-69
2022/03/16 07:04:25;;;;;;;7.03;4.20;;;17.40;59.30;;;;;;5059298;28;20116;-69
2022/03/16 07:06:51;;;;;;;6.70;4.20;;;19.10;60.10;;;;;;5060084;28;20045;-69
2022/03/16 07:09:17;;;;;;;5.00;3.65;;;21.60;61.50;;;;;;5074476;28;20027;-69
2022/03/16 07:11:42;;;;;;;5.63;3.83;;;18.40;59.80;;;;;;5079451;28;20086;-69
2022/03/16 07:16:52;;;;;;;7.80;4.00;;;18.00;59.30;;;;;;5079323;28;20131;-69
2022/03/16 07:19:18;;;;;;;6.32;3.55;;;17.20;59.40;;;;;;5079925;28;20052;-69
2022/03/16 07:21:43;;;;;;;5.45;3.80;;;22.80;62.00;;;;;;5078487;28;20078;-69
2022/03/16 07:24:09;;;;;;;6.43;3.95;;;21.50;61.20;;;;;;5070956;28;20037;-69
2022/03/16 07:26:35;;;;;;;8.15;3.50;;;23.80;62.60;;;;;;5079451;28;20024;-69
2022/03/16 07:29:01;;;;;;;8.80;4.20;;;18.30;59.90;;;;;;5080075;28;20017;-69
2022/03/16 07:31:27;;;;;;;6.18;3.72;;;23.70;62.80;;;;;;5080175;28;20028;-69
2022/03/16 07:33:53;;;;;;;6.65;3.67;;;23.50;62.40;;;;;;5079862;28;20019;-69
2022/03/16 07:36:19;;;;;;;6.93;4.35;;;18.50;59.50;;;;;;5079656;28;20036;-69
2022/03/16 07:38:45;;;;;;;5.47;3.28;;;16.90;58.90;;;;;;5080477;28;20017;-69
2022/03/16 07:41:11;;;;;;;5.57;3.80;;;20.00;60.50;;;;;;5079553;28;20028;-69
2022/03/16 07:43:37;;;;;;;5.82;3.97;;;21.50;61.50;;;;;;5079224;28;20051;-69
2022/03/16 07:46:03;;;;;;;5.78;4.00;;;17.00;58.90;;;;;;5080781;28;20078;-69
2022/03/16 07:48:29;;;;;;;6.47;4.10;;;23.40;62.50;;;;;;5081473;28;20016;-69
2022/03/16 07:50:55;;;;;;;6.43;4.00;;;17.30;58.90;;;;;;5081520;28;20029;-69
2022/03/16 07:53:21;;;;;;;8.57;4.60;;;19.20;59.90;;;;;;5079892;28;20028;-69
2022/03/16 07:55:48;;;;;;;7.53;3.97;;;20.10;60.80;;;;;;5080424;28;20052;-69
2022/03/16 07:58:14;;;;;;;7.57;4.10;;;21.10;61.10;;;;;;5079712;28;20447;-69
2022/03/16 08:00:39;;;;;;;7.10;3.63;;;19.20;60.50;;;;;;5078561;28;20032;-69
2022/03/16 08:03:05;;;;;;;8.07;4.20;;;19.60;60.20;;;;;;5078954;28;20028;-69
2022/03/16 08:05:31;;;;;;;5.60;3.70;;;21.70;61.70;;;;;;5079274;28;20025;-69
2022/03/16 08:07:57;;;;;;;7.40;4.10;;;23.60;62.10;;;;;;5075868;28;20017;-69
2022/03/16 08:10:23;;;;;;;6.60;4.10;;;21.00;60.90;;;;;;5060612;28;20028;-69
2022/03/16 08:12:49;;;;;;;9.70;4.40;;;17.00;58.50;;;;;;5061226;28;20025;-69
2022/03/16 08:15:15;;;;;;;7.53;4.25;;;23.70;62.50;;;;;;5051906;28;20484;-69
2022/03/16 08:17:41;;;;;;;5.75;3.90;;;18.20;59.30;;;;;;5070442;28;20040;-69
2022/03/16 08:20:07;;;;;;;7.15;3.70;;;18.00;58.90;;;;;;5059170;28;20037;-69
2022/03/16 08:22:35;;;;;;;9.93;4.53;;;17.60;58.70;;;;;;5040858;28;20024;-69
2022/03/16 08:25:04;;;;;;;7.30;4.47;;;22.00;60.60;;;;;;5052754;28;20043;-69
2022/03/16 08:27:31;;;;;;;7.78;4.20;;;19.30;58.80;;;;;;5049711;28;20084;-69
2022/03/16 08:29:56;;;;;;;10.20;4.65;;;19.10;59.20;;;;;;5048974;28;20044;-69
2022/03/16 08:32:23;;;;;;;6.82;4.40;;;18.80;59.30;;;;;;5051534;28;20025;-69
2022/03/16 08:34:49;;;;;;;8.38;4.55;;;17.20;58.20;;;;;;5047573;28;20037;-69
2022/03/16 08:37:15;;;;;;;7.60;4.38;;;21.70;60.90;;;;;;5050080;28;20021;-68
2022/03/16 08:39:41;;;;;;;7.53;4.18;;;20.00;59.80;;;;;;5049501;28;20052;-68
2022/03/16 08:42:09;;;;;;;6.82;4.28;;;20.20;60.40;;;;;;5048960;28;20083;-69
2022/03/16 08:44:35;;;;;;;8.02;3.90;;;21.20;60.30;;;;;;5047763;28;20033;-69
2022/03/16 08:47:01;;;;;;;7.03;3.97;;;23.40;61.70;;;;;;5050178;28;20071;-69
2022/03/16 08:49:29;;;;;;;10.68;4.63;;;19.10;59.40;;;;;;5047799;28;20035;-69
2022/03/16 08:51:58;;;;;;;9.15;4.97;;;20.50;60.60;;;;;;5048824;28;20021;-69
2022/03/16 08:54:25;;;;;;;6.95;3.97;;;17.90;58.90;;;;;;5052621;28;20040;-68
2022/03/16 08:56:52;;;;;;;14.73;7.68;;;23.20;61.30;;;;;;5068383;28;20024;-68
2022/03/16 08:59:20;;;;;;;8.73;4.55;;;17.20;59.80;;;;;;5075413;28;20029;-68
2022/03/16 09:01:46;;;;;;;12.05;6.40;;;18.10;58.90;;;;;;5064086;28;20037;-68
2022/03/16 09:04:12;;;;;;;16.77;8.40;;;23.10;62.00;;;;;;5055877;28;20029;-69
2022/03/16 09:06:37;;;;;;;14.60;7.78;;;17.70;58.90;;;;;;5054257;28;20025;-69
2022/03/16 09:09:03;;;;;;;17.35;6.57;;;20.70;60.90;;;;;;5067673;28;20047;-68
2022/03/16 09:11:29;;;;;;;13.38;6.75;;;20.80;60.30;;;;;;5073468;28;20113;-68
2022/03/16 09:13:55;;;;;;;9.38;6.13;;;18.70;59.10;;;;;;5057117;28;20032;-68
2022/03/16 09:16:21;;;;;;;11.70;5.75;;;19.10;59.50;;;;;;5053806;28;20060;-68
2022/03/16 09:18:48;;;;;;;23.08;9.82;;;23.10;61.80;;;;;;5053544;28;20611;-68
2022/03/16 09:21:14;;;;;;;14.07;6.25;;;19.00;59.70;;;;;;5035488;28;20028;-68
2022/03/16 09:23:40;;;;;;;13.20;6.75;;;21.20;60.50;;;;;;5058415;28;20033;-68
2022/03/16 09:26:06;;;;;;;11.50;5.85;;;18.10;58.80;;;;;;5073829;28;20083;-69
2022/03/16 09:28:33;;;;;;;11.38;6.63;;;16.80;58.20;;;;;;5073451;28;20040;-69
2022/03/16 09:30:59;;;;;;;15.55;6.53;;;18.80;59.10;;;;;;5073927;28;20548;-68
2022/03/16 09:33:25;;;;;;;23.40;9.05;;;18.40;59.10;;;;;;5076397;28;20111;-69
2022/03/16 09:35:52;;;;;;;11.60;6.68;;;18.80;59.60;;;;;;5062013;28;20483;-69
2022/03/16 09:38:21;;;;;;;21.42;8.50;;;21.10;60.00;;;;;;5056649;28;20116;-69
2022/03/16 09:40:53;;;;;;;16.65;7.60;;;20.00;58.50;;;;;;5054140;28;20071;-69
2022/03/16 09:43:23;;;;;;;19.90;8.68;;;20.30;58.40;;;;;;5047058;28;20111;-69
2022/03/16 09:46:04;;;;;;;20.58;9.35;;;19.50;59.20;;;;;;5053016;28;20028;-69
2022/03/16 09:48:32;;;;;;;17.20;8.80;;;20.30;57.20;;;;;;5054638;28;20033;-69
2022/03/16 09:50:58;;;;;;;12.98;6.65;;;17.40;57.80;;;;;;5054044;28;20028;-69
2022/03/16 09:53:27;;;;;;;18.95;9.70;;;20.90;60.00;;;;;;5056610;28;20032;-68
2022/03/16 09:55:54;;;;;;;15.35;7.40;;;20.20;58.70;;;;;;5057414;28;20052;-68
2022/03/16 09:58:20;;;;;;;13.90;6.50;;;18.60;58.80;;;;;;5055576;28;20033;-69
2022/03/16 10:00:50;;;;;;;13.15;6.30;;;23.20;61.40;;;;;;5056612;28;20033;-68
2022/03/16 10:03:16;;;;;;;12.05;6.05;;;20.10;58.60;;;;;;5057067;28;20029;-69
2022/03/16 10:05:46;;;;;;;17.30;7.45;;;23.30;61.50;;;;;;5067741;28;20064;-68
2022/03/16 10:08:14;;;;;;;20.38;9.02;;;19.40;59.50;;;;;;5055897;28;20027;-68
2022/03/16 10:13:25;;;;;;;15.98;8.48;;;20.40;61.40;;;;;;5055632;28;20506;-68
2022/03/16 10:15:52;;;;;;;25.33;12.63;;;20.80;61.60;;;;;;5052638;28;20035;-68
2022/03/16 10:18:25;;;;;;;18.13;8.73;;;20.50;61.00;;;;;;5051350;28;20072;-66
2022/03/16 10:20:52;;;;;;;14.43;7.40;;;19.00;59.10;;;;;;5058868;28;20044;-67
2022/03/16 10:23:28;;;;;;;13.10;6.85;;;19.80;60.90;;;;;;5053922;28;20041;-67
2022/03/16 10:25:58;;;;;;;12.88;6.35;;;20.10;59.20;;;;;;5031804;28;20021;-68
2022/03/16 10:28:29;;;;;;;13.85;6.85;;;17.50;58.20;;;;;;5032526;28;20017;-68
2022/03/16 10:31:03;;;;;;;21.42;10.27;;;19.80;59.40;;;;;;5032600;28;20019;-68
2022/03/16 10:33:48;;;;;;;20.98;10.45;;;17.60;59.30;;;;;;5052813;28;20031;-68
2022/03/16 10:36:16;;;;;;;18.48;8.68;;;21.50;60.70;;;;;;5056452;28;20025;-68
2022/03/16 10:38:45;;;;;;;23.15;11.50;;;17.50;59.40;;;;;;5062650;28;20534;-68
2022/03/16 10:47:18;;;;;;;15.10;7.97;;;22.00;61.40;;;;;;5051865;28;20032;-67
2022/03/16 10:49:48;;;;;;;17.85;9.77;;;19.90;58.90;;;;;;5046729;28;20037;-68
2022/03/16 10:52:20;;;;;;;21.25;9.90;;;19.30;60.50;;;;;;5051217;28;20033;-68
2022/03/16 10:54:48;;;;;;;19.25;9.27;;;19.50;60.30;;;;;;5052056;28;20024;-68
2022/03/16 10:57:15;;;;;;;16.15;8.45;;;21.30;62.40;;;;;;5057864;28;20048;-68
2022/03/16 10:59:43;;;;;;;17.35;9.07;;;19.70;61.30;;;;;;5052409;28;20070;-68
2022/03/16 11:02:14;;;;;;;17.85;9.68;;;18.70;60.60;;;;;;5051209;28;20037;-68
2022/03/16 11:04:45;;;;;;;22.05;11.38;;;17.60;60.80;;;;;;5064313;28;20021;-68
2022/03/16 11:07:11;;;;;;;19.33;8.55;;;19.90;61.60;;;;;;5070232;28;20024;-67
2022/03/16 11:09:38;;;;;;;17.98;8.68;;;17.90;60.20;;;;;;5056264;28;20044;-68
2022/03/16 11:14:51;;;;;;;21.50;9.38;;;20.20;61.60;;;;;;5046903;28;20043;-67
2022/03/16 11:17:18;;;;;;;19.60;8.80;;;21.30;62.60;;;;;;5054958;28;20049;-67
2022/03/16 11:19:46;;;;;;;21.50;10.75;;;19.80;61.80;;;;;;5046131;28;20063;-68
2022/03/16 11:22:29;;;;;;;23.15;9.10;;;17.80;60.70;;;;;;5055312;28;20156;-68
2022/03/16 11:25:11;;;;;;;17.35;8.05;;;19.90;60.50;;;;;;5036564;28;20030;-68
2022/03/16 11:27:54;;;;;;;17.15;8.18;;;20.00;58.50;;;;;;5062914;28;20086;-67
2022/03/16 11:30:26;;;;;;;18.63;8.27;;;20.00;57.50;;;;;;5051082;28;20128;-68
2022/03/16 11:33:00;;;;;;;15.32;7.10;;;19.40;59.50;;;;;;5051564;28;20035;-68
2022/03/16 11:35:35;;;;;;;19.02;8.13;;;20.40;59.50;;;;;;5070163;28;20039;-68
2022/03/16 11:38:12;;;;;;;14.98;7.80;;;22.50;59.80;;;;;;5055969;28;20503;-68
2022/03/16 11:40:46;;;;;;;16.73;8.32;;;21.20;59.40;;;;;;5050835;28;20037;-68
2022/03/16 11:43:17;;;;;;;14.43;7.70;;;19.90;58.20;;;;;;5048754;28;20032;-68
2022/03/16 11:45:44;;;;;;;16.63;7.25;;;20.50;59.50;;;;;;5066315;28;20036;-68
2022/03/16 11:48:33;;;;;;;15.95;8.40;;;17.90;59.30;;;;;;5053895;28;20051;-68
2022/03/16 11:51:14;;;;;;;17.35;7.95;;;20.00;57.60;;;;;;5060937;28;20024;-68
2022/03/16 11:53:54;;;;;;;15.85;7.15;;;20.20;57.70;;;;;;5054534;28;20032;-68
2022/03/16 11:56:24;;;;;;;20.40;7.90;;;19.40;57.60;;;;;;5051081;28;20017;-68
2022/03/16 11:59:02;;;;;;;17.15;7.75;;;19.90;59.10;;;;;;5065134;28;20036;-68
2022/03/16 12:01:39;;;;;;;16.70;7.13;;;19.90;58.90;;;;;;5052560;28;20029;-68
2022/03/16 12:04:16;;;;;;;15.50;7.60;;;21.30;59.80;;;;;;5050647;28;20482;-68
2022/03/16 12:07:03;;;;;;;17.40;8.45;;;18.60;57.90;;;;;;5058650;28;20098;-68
2022/03/16 12:09:50;;;;;;;13.48;7.30;;;19.70;58.90;;;;;;5054381;28;20675;-68
2022/03/16 12:12:57;;;;;;;16.75;7.90;;;20.10;58.30;;;;;;5049601;28;20124;-67
2022/03/16 12:15:42;;;;;;;19.58;7.95;;;20.20;58.40;;;;;;5056328;28;20024;-67
2022/03/16 12:18:14;;;;;;;15.45;7.60;;;20.20;58.80;;;;;;5030570;28;20045;-67
2022/03/16 12:20:56;;;;;;;14.90;6.85;;;22.80;61.80;;;;;;5032107;28;20061;-67
2022/03/16 12:23:58;;;;;;;14.15;7.22;;;19.40;58.90;;;;;;5022750;28;20025;-68
2022/03/16 12:26:26;;;;;;;19.05;8.70;;;21.20;59.50;;;;;;5033025;28;20033;-68
2022/03/16 12:29:03;;;;;;;14.55;6.85;;;18.20;61.90;;;;;;5032416;28;20072;-68
2022/03/16 12:31:34;;;;;;;17.48;7.75;;;18.90;60.10;;;;;;5034857;28;20083;-68
2022/03/16 12:34:00;;;;;;;13.73;6.50;;;21.10;63.90;;;;;;5042954;28;20108;-68
2022/03/16 12:36:33;;;;;;;13.43;6.60;;;18.60;61.80;;;;;;5043597;28;20528;-67
2022/03/16 12:39:01;;;;;;;;;;;20.40;60.50;;;;;;5034575;28;20037;-67
2022/03/16 12:44:16;;;;;;;22.35;8.00;;;22.20;65.10;;;;;;5037813;28;20041;-67
2022/03/16 12:46:47;;;;;;;19.50;8.00;;;20.30;63.90;;;;;;5050314;28;20438;-67
2022/03/16 12:49:18;;;;;;;18.60;9.00;;;20.40;63.30;;;;;;5050050;28;20491;-67
2022/03/16 12:52:01;;;;;;;25.00;10.18;;;22.10;64.70;;;;;;5037197;28;20476;-68
2022/03/16 12:54:36;;;;;;;18.60;9.07;;;21.60;62.20;;;;;;5040326;28;20112;-69
2022/03/16 12:57:12;;;;;;;21.88;8.43;;;20.30;63.60;;;;;;5037821;28;20064;-69
2022/03/16 12:59:46;;;;;;;16.70;8.27;;;20.30;62.60;;;;;;5042536;28;20376;-69